Whitingham, VT

11:54 PM EST on March 03, 2015 (GMT -0500)
Harriman And West | Change Station
CLOSE
Current Station
Airport
Location: North Adams,
Elevation: 653 ft
Nearby Weather Stations
Active Advisory: Winter Weather Advisory Active Notice: Public Information Statement

Elev 653 ft 42.70 °N, 73.17 °W | Updated 50 minutes ago

Snow
Snow
33 °F
Feels Like 22 °F
N
18
Wind Variable Wind from South
Gusts 41 mph

Today
High -- | Low -- °F
--% Chance of Precip.
Yesterday
High -- | Low -- °F
Precip. -- in
6:24 AM 5:43 PM
Waxing Gibbous, 98% visible
Pressure 29.73 in
Visibility 10.0 miles
Clouds Overcast 2500 ft
Windchill 22 °F
Dew Point 25 °F
Humidity 72%
Rainfall 0.18 in
Snow Depth Not available.
UV 0 out of 12
Pollen .40 out of 12
Air Quality Not available.
Flu Activity Not available.
SPECI KAQW 040404Z AUTO 18016G36KT 140V220 10SM OVC025 01/M04 A2973 RMK AO2 PK WND 22036/0358 UPB0358E01FZRAE0358 P0000 I1000 T00061039

More Conditions Fewer Conditions

Pressure 29.73 in
Visibility 10.0 miles
Clouds Overcast 2500 ft
Windchill 22 °F
Dew Point 25 °F
Humidity 72%
Rainfall 0.18 in
Snow Depth Not available.
UV 0 out of 12
Pollen .40 out of 12
Air Quality Not available.
Flu Activity Not available.
SPECI KAQW 040404Z AUTO 18016G36KT 140V220 10SM OVC025 01/M04 A2973 RMK AO2 PK WND 22036/0358 UPB0358E01FZRAE0358 P0000 I1000 T00061039

More Conditions Fewer Conditions

10-Day Weather Forecast

Almanac

Astronomy

Mar. 03, 2015 Rise Set
Actual Time
Civil Twilight
Nautical Twilight
Astronomical Twilight
Moon
Length of Visible Light
Length of Day
Tomorrow will be .
, % of the Moon is Illuminated

Today's Extremes

State Highs State Lows

Community

WunderPhotos

Upload Photos

1,802,385 photos uploaded!

WunderBlogs® & News

Nearby

Air Quality

  Air Quality AQ Index Pollutant
Not available.

Snow Depth

Station Depth Elevation

Earthquake Activity

City Distance Mag. Time & Date
Minimum magnitude displayed is 2.5.

Coastal Water Temperatures

Place Temperature

Nearby Weather Stations

Winter Weather Advisory
Statement as of 9:53 PM EST on March 03, 2015

... Winter Weather Advisory remains in effect until 6 am EST
Wednesday...

* locations... eastern New York and adjacent western New England.

* Hazard types... snow... sleet and freezing rain.

* Accumulations... total snow accumulation of 1 to 3 inches...
along with up to a tenth of an inch of ice.

* Timing... mixed snow... sleet and freezing rain will become spotty
after midnight... then completely taper off late tonight.

* Impacts... hazardous travel conditions due to snow and ice
covered roads.

* Winds... south 10 to 20 mph with gusts up to 35 mph.

* Temperatures... in the 20s... rising to between 30 and 35 by
around sunrise.

Precautionary/preparedness actions...

A Winter Weather Advisory means that periods of snow... sleet... or
freezing rain will cause travel difficulties. Be prepared for
slippery roads and limited visibilities... and use caution while
driving.